Current Conditions
Mostly Scattered
Clouds



Pressure
29.61 (inHG) - 1002.72 (mb)
Visibility

10.0 (mimiles) - 16.1 (km)
   Temperature
52  °F
11°C
48  °F
Dewpoint
88  %
 Humidity
   Wind Speed
13  mph
11  kts
21  km/h
5.8  m/s
   Wind Direction
 160°
South South
East
   Airport Data
0S9
Location Jefferson County International 5 mi (8.05 km)
Metar :K0S9 171215Z AUTO 16011G19KT 10SM SCT012 SCT085 SCT120 11/09 A2961 RMK AO2
Thu 17th October 05:15 am
   Raw Metar Info
Raw METAR is the most common format in the world for the transmission of observational weather data. It is highly standardized through the International Civil Aviation Organization (ICAO), which allows it to be understood throughout most of the world.
   API Info
Data Provided by
https://www.checkwx.com/weather/0S9
   © Info
CSS/SVG/PHP scripts were developed by weather34.com for use in the weather34 template © 2015-2019

Guide Info provided by Metar-Wikipedia